sensor_id;sensor_type;location;lat;lon;timestamp;temperature;humidity
32187;DHT22;18686;53.084;8.872;2023-09-18T00:02:10;18.30;99.90
32187;DHT22;18686;53.084;8.872;2023-09-18T00:04:38;18.30;99.90
32187;DHT22;18686;53.084;8.872;2023-09-18T00:07:06;18.30;99.90
32187;DHT22;18686;53.084;8.872;2023-09-18T00:09:34;18.30;99.90
32187;DHT22;18686;53.084;8.872;2023-09-18T00:12:03;18.30;99.90
32187;DHT22;18686;53.084;8.872;2023-09-18T00:14:31;18.30;99.90
32187;DHT22;18686;53.084;8.872;2023-09-18T00:17:01;18.30;99.90
32187;DHT22;18686;53.084;8.872;2023-09-18T00:19:30;18.30;99.90
32187;DHT22;18686;53.084;8.872;2023-09-18T00:21:59;18.30;99.90
32187;DHT22;18686;53.084;8.872;2023-09-18T00:24:28;18.30;99.90
32187;DHT22;18686;53.084;8.872;2023-09-18T00:26:56;18.40;99.90
32187;DHT22;18686;53.084;8.872;2023-09-18T00:29:24;18.40;99.90
32187;DHT22;18686;53.084;8.872;2023-09-18T00:31:52;18.40;99.90
32187;DHT22;18686;53.084;8.872;2023-09-18T00:34:22;18.40;99.90
32187;DHT22;18686;53.084;8.872;2023-09-18T00:36:50;18.40;99.90
32187;DHT22;18686;53.084;8.872;2023-09-18T00:39:19;18.40;99.90
32187;DHT22;18686;53.084;8.872;2023-09-18T00:41:47;18.40;99.90
32187;DHT22;18686;53.084;8.872;2023-09-18T00:44:20;18.40;99.90
32187;DHT22;18686;53.084;8.872;2023-09-18T00:46:50;18.40;99.90
32187;DHT22;18686;53.084;8.872;2023-09-18T00:49:19;18.40;99.90
32187;DHT22;18686;53.084;8.872;2023-09-18T00:51:49;18.30;99.90
32187;DHT22;18686;53.084;8.872;2023-09-18T00:54:18;18.30;99.90
32187;DHT22;18686;53.084;8.872;2023-09-18T00:56:47;18.30;99.90
32187;DHT22;18686;53.084;8.872;2023-09-18T00:59:20;18.30;99.90
32187;DHT22;18686;53.084;8.872;2023-09-18T01:01:50;18.30;99.90
32187;DHT22;18686;53.084;8.872;2023-09-18T01:04:18;18.20;99.90
32187;DHT22;18686;53.084;8.872;2023-09-18T01:06:48;18.20;99.90
32187;DHT22;18686;53.084;8.872;2023-09-18T01:09:16;18.20;99.90
32187;DHT22;18686;53.084;8.872;2023-09-18T01:11:52;18.20;99.90
32187;DHT22;18686;53.084;8.872;2023-09-18T01:14:29;18.20;99.90
32187;DHT22;18686;53.084;8.872;2023-09-18T01:17:00;18.20;99.90
32187;DHT22;18686;53.084;8.872;2023-09-18T01:19:41;18.20;99.90
32187;DHT22;18686;53.084;8.872;2023-09-18T01:22:11;18.30;99.90
32187;DHT22;18686;53.084;8.872;2023-09-18T01:24:41;18.30;99.90
32187;DHT22;18686;53.084;8.872;2023-09-18T01:27:10;18.30;99.90
32187;DHT22;18686;53.084;8.872;2023-09-18T01:29:39;18.30;99.90
32187;DHT22;18686;53.084;8.872;2023-09-18T01:32:08;18.30;99.90
32187;DHT22;18686;53.084;8.872;2023-09-18T01:34:37;18.20;99.90
32187;DHT22;18686;53.084;8.872;2023-09-18T01:37:10;18.20;99.90
32187;DHT22;18686;53.084;8.872;2023-09-18T01:39:41;18.20;99.90
32187;DHT22;18686;53.084;8.872;2023-09-18T01:42:10;18.20;99.90
32187;DHT22;18686;53.084;8.872;2023-09-18T01:44:38;18.20;99.90
32187;DHT22;18686;53.084;8.872;2023-09-18T01:47:07;18.10;99.90
32187;DHT22;18686;53.084;8.872;2023-09-18T01:49:37;18.10;99.90
32187;DHT22;18686;53.084;8.872;2023-09-18T01:52:08;18.10;99.90
32187;DHT22;18686;53.084;8.872;2023-09-18T01:54:36;18.10;99.90
32187;DHT22;18686;53.084;8.872;2023-09-18T01:57:06;18.10;99.90
32187;DHT22;18686;53.084;8.872;2023-09-18T01:59:34;18.00;99.90
32187;DHT22;18686;53.084;8.872;2023-09-18T02:02:05;18.00;99.90
32187;DHT22;18686;53.084;8.872;2023-09-18T02:04:38;18.10;99.90
32187;DHT22;18686;53.084;8.872;2023-09-18T02:07:26;18.10;99.90
32187;DHT22;18686;53.084;8.872;2023-09-18T02:09:55;18.10;99.90
32187;DHT22;18686;53.084;8.872;2023-09-18T02:12:24;18.10;99.90
32187;DHT22;18686;53.084;8.872;2023-09-18T02:14:52;18.10;99.90
32187;DHT22;18686;53.084;8.872;2023-09-18T02:17:21;18.10;99.90
32187;DHT22;18686;53.084;8.872;2023-09-18T02:19:49;18.10;99.90
32187;DHT22;18686;53.084;8.872;2023-09-18T02:22:17;18.10;99.90
32187;DHT22;18686;53.084;8.872;2023-09-18T02:24:46;18.10;99.90
32187;DHT22;18686;53.084;8.872;2023-09-18T02:27:14;18.10;99.90
32187;DHT22;18686;53.084;8.872;2023-09-18T02:29:46;18.00;99.90
32187;DHT22;18686;53.084;8.872;2023-09-18T02:32:16;18.00;99.90
32187;DHT22;18686;53.084;8.872;2023-09-18T02:34:45;18.00;99.90
32187;DHT22;18686;53.084;8.872;2023-09-18T02:37:14;18.00;99.90
32187;DHT22;18686;53.084;8.872;2023-09-18T02:39:42;18.00;99.90
32187;DHT22;18686;53.084;8.872;2023-09-18T02:42:10;18.00;99.90
32187;DHT22;18686;53.084;8.872;2023-09-18T02:44:39;18.00;99.90
32187;DHT22;18686;53.084;8.872;2023-09-18T02:47:08;18.00;99.90
32187;DHT22;18686;53.084;8.872;2023-09-18T02:49:38;18.00;99.90
32187;DHT22;18686;53.084;8.872;2023-09-18T02:52:06;18.00;99.90
32187;DHT22;18686;53.084;8.872;2023-09-18T02:54:34;18.00;99.90
32187;DHT22;18686;53.084;8.872;2023-09-18T02:57:03;18.00;99.90
32187;DHT22;18686;53.084;8.872;2023-09-18T02:59:31;18.00;99.90
32187;DHT22;18686;53.084;8.872;2023-09-18T03:02:00;18.00;99.90
32187;DHT22;18686;53.084;8.872;2023-09-18T03:04:31;18.00;99.90
32187;DHT22;18686;53.084;8.872;2023-09-18T03:06:59;18.00;99.90
32187;DHT22;18686;53.084;8.872;2023-09-18T03:09:28;18.00;99.90
32187;DHT22;18686;53.084;8.872;2023-09-18T03:11:57;18.00;99.90
32187;DHT22;18686;53.084;8.872;2023-09-18T03:14:25;18.10;99.90
32187;DHT22;18686;53.084;8.872;2023-09-18T03:16:53;18.10;99.90
32187;DHT22;18686;53.084;8.872;2023-09-18T03:19:21;18.10;99.90
32187;DHT22;18686;53.084;8.872;2023-09-18T03:21:53;18.10;99.90
32187;DHT22;18686;53.084;8.872;2023-09-18T03:24:21;18.10;99.90
32187;DHT22;18686;53.084;8.872;2023-09-18T03:26:49;18.10;99.90
32187;DHT22;18686;53.084;8.872;2023-09-18T03:29:17;18.10;99.90
32187;DHT22;18686;53.084;8.872;2023-09-18T03:31:46;18.10;99.90
32187;DHT22;18686;53.084;8.872;2023-09-18T03:34:14;18.20;99.90
32187;DHT22;18686;53.084;8.872;2023-09-18T03:36:42;18.20;99.90
32187;DHT22;18686;53.084;8.872;2023-09-18T03:39:12;18.20;99.90
32187;DHT22;18686;53.084;8.872;2023-09-18T03:41:40;18.30;99.90
32187;DHT22;18686;53.084;8.872;2023-09-18T03:44:08;18.20;99.90
32187;DHT22;18686;53.084;8.872;2023-09-18T03:46:37;18.30;99.90
32187;DHT22;18686;53.084;8.872;2023-09-18T03:49:05;18.30;99.90
32187;DHT22;18686;53.084;8.872;2023-09-18T03:51:36;18.30;99.90
32187;DHT22;18686;53.084;8.872;2023-09-18T03:54:04;18.40;99.90
32187;DHT22;18686;53.084;8.872;2023-09-18T03:56:34;18.50;99.90
32187;DHT22;18686;53.084;8.872;2023-09-18T03:59:02;18.50;99.90
32187;DHT22;18686;53.084;8.872;2023-09-18T04:01:31;18.50;99.90
32187;DHT22;18686;53.084;8.872;2023-09-18T04:04:00;18.60;99.90
32187;DHT22;18686;53.084;8.872;2023-09-18T04:06:36;18.60;99.90
32187;DHT22;18686;53.084;8.872;2023-09-18T04:09:06;18.60;99.90
32187;DHT22;18686;53.084;8.872;2023-09-18T04:11:35;18.70;99.90
32187;DHT22;18686;53.084;8.872;2023-09-18T04:14:04;18.70;99.90
32187;DHT22;18686;53.084;8.872;2023-09-18T04:16:32;18.70;99.90
32187;DHT22;18686;53.084;8.872;2023-09-18T04:19:02;18.60;99.90
32187;DHT22;18686;53.084;8.872;2023-09-18T04:21:30;18.60;99.90
32187;DHT22;18686;53.084;8.872;2023-09-18T04:23:58;18.50;99.90
32187;DHT22;18686;53.084;8.872;2023-09-18T04:26:27;18.50;99.90
32187;DHT22;18686;53.084;8.872;2023-09-18T04:28:59;18.50;99.90
32187;DHT22;18686;53.084;8.872;2023-09-18T04:31:28;18.40;99.90
32187;DHT22;18686;53.084;8.872;2023-09-18T04:33:57;18.40;99.90
32187;DHT22;18686;53.084;8.872;2023-09-18T04:36:25;18.40;99.90
32187;DHT22;18686;53.084;8.872;2023-09-18T04:38:53;18.40;99.90
32187;DHT22;18686;53.084;8.872;2023-09-18T04:41:22;18.30;99.90
32187;DHT22;18686;53.084;8.872;2023-09-18T04:43:52;18.40;99.90
32187;DHT22;18686;53.084;8.872;2023-09-18T04:46:22;18.40;99.90
32187;DHT22;18686;53.084;8.872;2023-09-18T04:48:51;18.50;99.90
32187;DHT22;18686;53.084;8.872;2023-09-18T04:51:20;18.50;99.90
32187;DHT22;18686;53.084;8.872;2023-09-18T04:53:48;18.50;99.90
32187;DHT22;18686;53.084;8.872;2023-09-18T04:56:16;18.60;99.90
32187;DHT22;18686;53.084;8.872;2023-09-18T04:58:45;18.60;99.90
32187;DHT22;18686;53.084;8.872;2023-09-18T05:01:13;18.60;99.90
32187;DHT22;18686;53.084;8.872;2023-09-18T05:03:43;18.60;99.90
32187;DHT22;18686;53.084;8.872;2023-09-18T05:06:12;18.70;99.90
32187;DHT22;18686;53.084;8.872;2023-09-18T05:08:40;18.70;99.90
32187;DHT22;18686;53.084;8.872;2023-09-18T05:11:08;18.70;99.90
32187;DHT22;18686;53.084;8.872;2023-09-18T05:13:40;18.70;99.90
32187;DHT22;18686;53.084;8.872;2023-09-18T05:16:08;18.80;99.90
32187;DHT22;18686;53.084;8.872;2023-09-18T05:18:36;18.80;99.90
32187;DHT22;18686;53.084;8.872;2023-09-18T05:21:06;18.80;99.90
32187;DHT22;18686;53.084;8.872;2023-09-18T05:23:36;18.80;99.90
32187;DHT22;18686;53.084;8.872;2023-09-18T05:26:04;18.90;99.90
32187;DHT22;18686;53.084;8.872;2023-09-18T05:28:32;19.00;99.90
32187;DHT22;18686;53.084;8.872;2023-09-18T05:31:01;19.00;99.90
32187;DHT22;18686;53.084;8.872;2023-09-18T05:33:29;19.10;99.90
32187;DHT22;18686;53.084;8.872;2023-09-18T05:35:57;19.20;99.90
32187;DHT22;18686;53.084;8.872;2023-09-18T05:38:27;19.20;99.90
32187;DHT22;18686;53.084;8.872;2023-09-18T05:40:55;19.30;99.90
32187;DHT22;18686;53.084;8.872;2023-09-18T05:43:23;19.30;99.90
32187;DHT22;18686;53.084;8.872;2023-09-18T05:45:51;19.30;99.90
32187;DHT22;18686;53.084;8.872;2023-09-18T05:48:19;19.40;99.90
32187;DHT22;18686;53.084;8.872;2023-09-18T05:50:47;19.40;99.90
32187;DHT22;18686;53.084;8.872;2023-09-18T05:53:16;19.50;99.90
32187;DHT22;18686;53.084;8.872;2023-09-18T05:55:45;19.50;99.90
32187;DHT22;18686;53.084;8.872;2023-09-18T05:58:13;19.50;99.90
32187;DHT22;18686;53.084;8.872;2023-09-18T06:00:42;19.50;99.90
32187;DHT22;18686;53.084;8.872;2023-09-18T06:03:10;19.50;99.90
32187;DHT22;18686;53.084;8.872;2023-09-18T06:05:40;19.40;99.90
32187;DHT22;18686;53.084;8.872;2023-09-18T06:08:08;19.10;99.90
32187;DHT22;18686;53.084;8.872;2023-09-18T06:10:36;18.90;99.90
32187;DHT22;18686;53.084;8.872;2023-09-18T06:13:06;18.70;99.90
32187;DHT22;18686;53.084;8.872;2023-09-18T06:15:34;18.50;99.90
32187;DHT22;18686;53.084;8.872;2023-09-18T06:18:03;18.40;99.90
32187;DHT22;18686;53.084;8.872;2023-09-18T06:20:33;18.20;99.90
32187;DHT22;18686;53.084;8.872;2023-09-18T06:23:01;18.20;99.90
32187;DHT22;18686;53.084;8.872;2023-09-18T06:25:30;18.10;99.90
32187;DHT22;18686;53.084;8.872;2023-09-18T06:27:59;18.00;99.90
32187;DHT22;18686;53.084;8.872;2023-09-18T06:30:29;18.00;99.90
32187;DHT22;18686;53.084;8.872;2023-09-18T06:32:58;18.00;99.90
32187;DHT22;18686;53.084;8.872;2023-09-18T06:35:26;18.00;99.90
32187;DHT22;18686;53.084;8.872;2023-09-18T06:37:55;18.10;99.90
32187;DHT22;18686;53.084;8.872;2023-09-18T06:40:25;18.10;99.90
32187;DHT22;18686;53.084;8.872;2023-09-18T06:42:58;18.10;99.90
32187;DHT22;18686;53.084;8.872;2023-09-18T06:45:28;18.20;99.90
32187;DHT22;18686;53.084;8.872;2023-09-18T06:47:56;18.20;99.90
32187;DHT22;18686;53.084;8.872;2023-09-18T06:50:25;18.30;99.90
32187;DHT22;18686;53.084;8.872;2023-09-18T06:52:53;18.40;99.90
32187;DHT22;18686;53.084;8.872;2023-09-18T06:55:21;18.40;99.90
32187;DHT22;18686;53.084;8.872;2023-09-18T06:57:49;18.50;99.90
32187;DHT22;18686;53.084;8.872;2023-09-18T07:00:19;18.50;99.90
32187;DHT22;18686;53.084;8.872;2023-09-18T07:02:49;18.50;99.90
32187;DHT22;18686;53.084;8.872;2023-09-18T07:05:18;18.60;99.90
32187;DHT22;18686;53.084;8.872;2023-09-18T07:07:46;18.60;99.90
32187;DHT22;18686;53.084;8.872;2023-09-18T07:10:14;18.60;99.90
32187;DHT22;18686;53.084;8.872;2023-09-18T07:12:42;18.60;99.90
32187;DHT22;18686;53.084;8.872;2023-09-18T07:15:10;18.60;99.90
32187;DHT22;18686;53.084;8.872;2023-09-18T07:17:38;18.60;99.90
32187;DHT22;18686;53.084;8.872;2023-09-18T07:20:09;18.60;99.90
32187;DHT22;18686;53.084;8.872;2023-09-18T07:22:46;18.60;99.90
32187;DHT22;18686;53.084;8.872;2023-09-18T07:25:15;18.70;99.90
32187;DHT22;18686;53.084;8.872;2023-09-18T07:27:43;18.70;99.90
32187;DHT22;18686;53.084;8.872;2023-09-18T07:30:14;18.70;99.90
32187;DHT22;18686;53.084;8.872;2023-09-18T07:32:44;18.80;99.90
32187;DHT22;18686;53.084;8.872;2023-09-18T07:35:15;18.80;99.90
32187;DHT22;18686;53.084;8.872;2023-09-18T07:37:43;18.90;99.90
32187;DHT22;18686;53.084;8.872;2023-09-18T07:40:14;18.90;99.90
32187;DHT22;18686;53.084;8.872;2023-09-18T07:42:43;18.90;99.90
32187;DHT22;18686;53.084;8.872;2023-09-18T07:45:11;19.00;99.90
32187;DHT22;18686;53.084;8.872;2023-09-18T07:47:40;19.00;99.90
32187;DHT22;18686;53.084;8.872;2023-09-18T07:50:09;19.10;99.90
32187;DHT22;18686;53.084;8.872;2023-09-18T07:52:38;19.20;99.90
32187;DHT22;18686;53.084;8.872;2023-09-18T07:55:08;19.20;99.90
32187;DHT22;18686;53.084;8.872;2023-09-18T07:57:36;19.30;99.90
32187;DHT22;18686;53.084;8.872;2023-09-18T08:00:07;19.30;99.90
32187;DHT22;18686;53.084;8.872;2023-09-18T08:02:40;19.40;99.90
32187;DHT22;18686;53.084;8.872;2023-09-18T08:05:09;19.40;99.90
32187;DHT22;18686;53.084;8.872;2023-09-18T08:07:39;19.50;99.90
32187;DHT22;18686;53.084;8.872;2023-09-18T08:10:08;19.50;99.90
32187;DHT22;18686;53.084;8.872;2023-09-18T08:12:37;19.60;99.90
32187;DHT22;18686;53.084;8.872;2023-09-18T08:15:06;19.60;99.90
32187;DHT22;18686;53.084;8.872;2023-09-18T08:17:35;19.80;99.90
32187;DHT22;18686;53.084;8.872;2023-09-18T08:20:05;19.90;99.90
32187;DHT22;18686;53.084;8.872;2023-09-18T08:22:40;20.00;99.90
32187;DHT22;18686;53.084;8.872;2023-09-18T08:25:09;20.00;99.90
32187;DHT22;18686;53.084;8.872;2023-09-18T08:27:38;20.10;99.90
32187;DHT22;18686;53.084;8.872;2023-09-18T08:30:11;20.20;99.90
32187;DHT22;18686;53.084;8.872;2023-09-18T08:32:40;20.30;99.90
32187;DHT22;18686;53.084;8.872;2023-09-18T08:35:09;20.50;99.90
32187;DHT22;18686;53.084;8.872;2023-09-18T08:37:39;20.70;99.90
32187;DHT22;18686;53.084;8.872;2023-09-18T08:40:10;21.00;99.90
32187;DHT22;18686;53.084;8.872;2023-09-18T08:42:45;21.20;99.90
32187;DHT22;18686;53.084;8.872;2023-09-18T08:45:18;21.60;99.90
32187;DHT22;18686;53.084;8.872;2023-09-18T08:47:47;21.90;99.90
32187;DHT22;18686;53.084;8.872;2023-09-18T08:50:16;22.10;99.90
32187;DHT22;18686;53.084;8.872;2023-09-18T08:52:47;22.40;99.90
32187;DHT22;18686;53.084;8.872;2023-09-18T08:55:16;22.60;99.90
32187;DHT22;18686;53.084;8.872;2023-09-18T08:57:46;22.70;99.90
32187;DHT22;18686;53.084;8.872;2023-09-18T09:00:16;22.80;99.90
32187;DHT22;18686;53.084;8.872;2023-09-18T09:02:46;23.00;99.90
32187;DHT22;18686;53.084;8.872;2023-09-18T09:05:16;23.10;99.90
32187;DHT22;18686;53.084;8.872;2023-09-18T09:07:44;23.20;99.90
32187;DHT22;18686;53.084;8.872;2023-09-18T09:10:13;23.40;99.90
32187;DHT22;18686;53.084;8.872;2023-09-18T09:12:53;23.50;99.90
32187;DHT22;18686;53.084;8.872;2023-09-18T09:15:22;23.60;99.90
32187;DHT22;18686;53.084;8.872;2023-09-18T09:17:52;23.60;99.90
32187;DHT22;18686;53.084;8.872;2023-09-18T09:20:20;23.50;99.90
32187;DHT22;18686;53.084;8.872;2023-09-18T09:22:48;23.50;99.90
32187;DHT22;18686;53.084;8.872;2023-09-18T09:25:24;23.50;99.90
32187;DHT22;18686;53.084;8.872;2023-09-18T09:27:55;23.40;99.90
32187;DHT22;18686;53.084;8.872;2023-09-18T09:30:25;23.40;99.90
32187;DHT22;18686;53.084;8.872;2023-09-18T09:32:55;23.30;99.90
32187;DHT22;18686;53.084;8.872;2023-09-18T09:35:24;23.40;99.90
32187;DHT22;18686;53.084;8.872;2023-09-18T09:37:57;23.40;99.90
32187;DHT22;18686;53.084;8.872;2023-09-18T09:40:29;23.50;99.90
32187;DHT22;18686;53.084;8.872;2023-09-18T09:42:59;23.60;99.90
32187;DHT22;18686;53.084;8.872;2023-09-18T09:45:31;23.70;99.90
32187;DHT22;18686;53.084;8.872;2023-09-18T09:48:04;23.80;99.90
32187;DHT22;18686;53.084;8.872;2023-09-18T09:50:39;23.80;99.90
32187;DHT22;18686;53.084;8.872;2023-09-18T09:53:12;23.80;99.90
32187;DHT22;18686;53.084;8.872;2023-09-18T09:55:41;23.80;99.90
32187;DHT22;18686;53.084;8.872;2023-09-18T09:58:11;23.90;99.90
32187;DHT22;18686;53.084;8.872;2023-09-18T10:00:44;23.80;99.90
32187;DHT22;18686;53.084;8.872;2023-09-18T10:03:16;23.80;99.90
32187;DHT22;18686;53.084;8.872;2023-09-18T10:05:46;23.80;99.90
32187;DHT22;18686;53.084;8.872;2023-09-18T10:08:17;23.90;99.90
32187;DHT22;18686;53.084;8.872;2023-09-18T10:10:46;24.00;99.90
32187;DHT22;18686;53.084;8.872;2023-09-18T10:13:18;24.10;99.90
32187;DHT22;18686;53.084;8.872;2023-09-18T10:15:49;24.20;99.90
32187;DHT22;18686;53.084;8.872;2023-09-18T10:18:25;24.20;99.90
32187;DHT22;18686;53.084;8.872;2023-09-18T10:21:02;24.20;99.90
32187;DHT22;18686;53.084;8.872;2023-09-18T10:23:39;24.00;99.90
32187;DHT22;18686;53.084;8.872;2023-09-18T10:26:14;24.00;99.90
32187;DHT22;18686;53.084;8.872;2023-09-18T10:28:48;23.90;99.90
32187;DHT22;18686;53.084;8.872;2023-09-18T10:31:20;23.90;99.90
32187;DHT22;18686;53.084;8.872;2023-09-18T10:33:49;23.90;99.90
32187;DHT22;18686;53.084;8.872;2023-09-18T10:36:18;23.90;99.90
32187;DHT22;18686;53.084;8.872;2023-09-18T10:38:50;23.90;99.90
32187;DHT22;18686;53.084;8.872;2023-09-18T10:41:20;24.00;99.90
32187;DHT22;18686;53.084;8.872;2023-09-18T10:43:53;23.90;99.90
32187;DHT22;18686;53.084;8.872;2023-09-18T10:46:24;24.00;99.90
32187;DHT22;18686;53.084;8.872;2023-09-18T10:48:54;24.10;99.90
32187;DHT22;18686;53.084;8.872;2023-09-18T10:51:23;23.90;99.90
32187;DHT22;18686;53.084;8.872;2023-09-18T10:53:52;23.90;99.90
32187;DHT22;18686;53.084;8.872;2023-09-18T10:56:20;23.80;99.90
32187;DHT22;18686;53.084;8.872;2023-09-18T10:58:58;23.70;99.90
32187;DHT22;18686;53.084;8.872;2023-09-18T11:01:27;23.60;99.90
32187;DHT22;18686;53.084;8.872;2023-09-18T11:04:01;23.60;99.90
32187;DHT22;18686;53.084;8.872;2023-09-18T11:06:30;23.60;99.90
32187;DHT22;18686;53.084;8.872;2023-09-18T11:09:03;23.70;99.90
32187;DHT22;18686;53.084;8.872;2023-09-18T11:11:32;23.90;99.90
32187;DHT22;18686;53.084;8.872;2023-09-18T11:14:11;24.10;99.90
32187;DHT22;18686;53.084;8.872;2023-09-18T11:16:41;24.60;99.90
32187;DHT22;18686;53.084;8.872;2023-09-18T11:19:11;25.00;99.90
32187;DHT22;18686;53.084;8.872;2023-09-18T11:21:40;25.30;99.90
32187;DHT22;18686;53.084;8.872;2023-09-18T11:24:16;25.70;99.90
32187;DHT22;18686;53.084;8.872;2023-09-18T11:26:45;25.90;98.30
32187;DHT22;18686;53.084;8.872;2023-09-18T11:29:17;26.30;97.60
32187;DHT22;18686;53.084;8.872;2023-09-18T11:31:47;26.60;96.80
32187;DHT22;18686;53.084;8.872;2023-09-18T11:34:20;27.00;95.80
32187;DHT22;18686;53.084;8.872;2023-09-18T11:36:50;26.90;93.70
32187;DHT22;18686;53.084;8.872;2023-09-18T11:39:34;27.00;93.70
32187;DHT22;18686;53.084;8.872;2023-09-18T11:42:08;27.00;92.30
32187;DHT22;18686;53.084;8.872;2023-09-18T11:44:38;26.80;92.70
32187;DHT22;18686;53.084;8.872;2023-09-18T11:47:18;26.90;92.10
32187;DHT22;18686;53.084;8.872;2023-09-18T11:49:50;27.00;91.80
32187;DHT22;18686;53.084;8.872;2023-09-18T11:52:23;27.00;91.70
32187;DHT22;18686;53.084;8.872;2023-09-18T11:54:52;26.90;90.80
32187;DHT22;18686;53.084;8.872;2023-09-18T11:57:21;26.50;91.20
32187;DHT22;18686;53.084;8.872;2023-09-18T11:59:51;26.10;92.70
32187;DHT22;18686;53.084;8.872;2023-09-18T12:02:26;25.90;93.20
32187;DHT22;18686;53.084;8.872;2023-09-18T12:05:10;25.70;94.20
32187;DHT22;18686;53.084;8.872;2023-09-18T12:07:41;25.40;94.90
32187;DHT22;18686;53.084;8.872;2023-09-18T12:10:12;25.10;95.40
32187;DHT22;18686;53.084;8.872;2023-09-18T12:12:42;24.90;96.50
32187;DHT22;18686;53.084;8.872;2023-09-18T12:15:12;24.80;96.80
32187;DHT22;18686;53.084;8.872;2023-09-18T12:17:42;25.00;97.10
32187;DHT22;18686;53.084;8.872;2023-09-18T12:20:15;26.00;95.50
32187;DHT22;18686;53.084;8.872;2023-09-18T12:22:47;27.40;91.00
32187;DHT22;18686;53.084;8.872;2023-09-18T12:25:16;28.10;84.20
32187;DHT22;18686;53.084;8.872;2023-09-18T12:27:45;28.40;80.60
32187;DHT22;18686;53.084;8.872;2023-09-18T12:30:15;28.80;77.40
32187;DHT22;18686;53.084;8.872;2023-09-18T12:32:48;30.60;74.10
32187;DHT22;18686;53.084;8.872;2023-09-18T12:35:17;31.30;62.70
32187;DHT22;18686;53.084;8.872;2023-09-18T12:37:46;31.00;61.00
32187;DHT22;18686;53.084;8.872;2023-09-18T12:40:22;30.80;61.10
32187;DHT22;18686;53.084;8.872;2023-09-18T12:42:51;31.00;62.90
32187;DHT22;18686;53.084;8.872;2023-09-18T12:45:22;32.50;57.30
32187;DHT22;18686;53.084;8.872;2023-09-18T12:47:51;33.90;52.50
32187;DHT22;18686;53.084;8.872;2023-09-18T12:50:20;34.90;48.30
32187;DHT22;18686;53.084;8.872;2023-09-18T12:52:48;36.00;46.20
32187;DHT22;18686;53.084;8.872;2023-09-18T12:55:23;37.60;45.20
32187;DHT22;18686;53.084;8.872;2023-09-18T12:57:52;39.50;40.60
32187;DHT22;18686;53.084;8.872;2023-09-18T13:00:22;40.00;38.10
32187;DHT22;18686;53.084;8.872;2023-09-18T13:02:54;39.10;38.00
32187;DHT22;18686;53.084;8.872;2023-09-18T13:05:24;38.30;39.20
32187;DHT22;18686;53.084;8.872;2023-09-18T13:07:54;37.70;39.60
32187;DHT22;18686;53.084;8.872;2023-09-18T13:10:23;36.40;41.40
32187;DHT22;18686;53.084;8.872;2023-09-18T13:12:55;36.10;42.70
32187;DHT22;18686;53.084;8.872;2023-09-18T13:15:27;35.10;42.90
32187;DHT22;18686;53.084;8.872;2023-09-18T13:17:57;34.10;44.30
32187;DHT22;18686;53.084;8.872;2023-09-18T13:20:27;32.90;46.20
32187;DHT22;18686;53.084;8.872;2023-09-18T13:22:57;32.00;47.80
32187;DHT22;18686;53.084;8.872;2023-09-18T13:25:30;30.90;50.10
32187;DHT22;18686;53.084;8.872;2023-09-18T13:27:59;29.90;52.60
32187;DHT22;18686;53.084;8.872;2023-09-18T13:30:29;29.30;53.90
32187;DHT22;18686;53.084;8.872;2023-09-18T13:33:03;28.80;55.40
32187;DHT22;18686;53.084;8.872;2023-09-18T13:35:33;28.20;57.40
32187;DHT22;18686;53.084;8.872;2023-09-18T13:38:02;28.10;58.80
32187;DHT22;18686;53.084;8.872;2023-09-18T13:40:32;28.30;57.50
32187;DHT22;18686;53.084;8.872;2023-09-18T13:43:02;28.40;57.10
32187;DHT22;18686;53.084;8.872;2023-09-18T13:45:33;28.70;57.00
32187;DHT22;18686;53.084;8.872;2023-09-18T13:48:03;29.20;56.30
32187;DHT22;18686;53.084;8.872;2023-09-18T13:50:32;29.40;55.30
32187;DHT22;18686;53.084;8.872;2023-09-18T13:53:00;29.10;55.60
32187;DHT22;18686;53.084;8.872;2023-09-18T13:55:30;28.80;56.60
32187;DHT22;18686;53.084;8.872;2023-09-18T13:57:59;28.50;57.50
32187;DHT22;18686;53.084;8.872;2023-09-18T14:00:31;28.30;58.10
32187;DHT22;18686;53.084;8.872;2023-09-18T14:02:59;28.20;58.00
32187;DHT22;18686;53.084;8.872;2023-09-18T14:05:30;28.10;58.30
32187;DHT22;18686;53.084;8.872;2023-09-18T14:08:00;27.80;58.90
32187;DHT22;18686;53.084;8.872;2023-09-18T14:10:29;27.40;60.10
32187;DHT22;18686;53.084;8.872;2023-09-18T14:12:58;27.20;61.00
32187;DHT22;18686;53.084;8.872;2023-09-18T14:15:26;26.90;61.90
32187;DHT22;18686;53.084;8.872;2023-09-18T14:17:57;26.70;62.60
32187;DHT22;18686;53.084;8.872;2023-09-18T14:20:25;26.50;63.50
32187;DHT22;18686;53.084;8.872;2023-09-18T14:22:53;26.40;64.70
32187;DHT22;18686;53.084;8.872;2023-09-18T14:25:22;26.40;64.70
32187;DHT22;18686;53.084;8.872;2023-09-18T14:27:50;26.60;65.00
32187;DHT22;18686;53.084;8.872;2023-09-18T14:30:18;26.70;64.70
32187;DHT22;18686;53.084;8.872;2023-09-18T14:32:46;26.80;64.80
32187;DHT22;18686;53.084;8.872;2023-09-18T14:35:18;26.90;65.30
32187;DHT22;18686;53.084;8.872;2023-09-18T14:37:47;26.80;65.20
32187;DHT22;18686;53.084;8.872;2023-09-18T14:40:15;26.70;65.60
32187;DHT22;18686;53.084;8.872;2023-09-18T14:42:44;26.50;66.50
32187;DHT22;18686;53.084;8.872;2023-09-18T14:45:15;26.20;66.50
32187;DHT22;18686;53.084;8.872;2023-09-18T14:47:44;25.90;68.10
32187;DHT22;18686;53.084;8.872;2023-09-18T14:50:12;25.80;70.30
32187;DHT22;18686;53.084;8.872;2023-09-18T14:52:41;25.60;70.20
32187;DHT22;18686;53.084;8.872;2023-09-18T14:55:10;25.50;70.70
32187;DHT22;18686;53.084;8.872;2023-09-18T14:57:40;25.30;70.90
32187;DHT22;18686;53.084;8.872;2023-09-18T15:00:10;25.20;72.60
32187;DHT22;18686;53.084;8.872;2023-09-18T15:02:40;25.10;73.30
32187;DHT22;18686;53.084;8.872;2023-09-18T15:05:09;25.00;73.50
32187;DHT22;18686;53.084;8.872;2023-09-18T15:07:39;24.90;73.70
32187;DHT22;18686;53.084;8.872;2023-09-18T15:10:09;24.90;74.00
32187;DHT22;18686;53.084;8.872;2023-09-18T15:12:38;24.80;75.10
32187;DHT22;18686;53.084;8.872;2023-09-18T15:15:08;24.70;75.80
32187;DHT22;18686;53.084;8.872;2023-09-18T15:17:36;24.70;77.10
32187;DHT22;18686;53.084;8.872;2023-09-18T15:20:06;24.80;77.70
32187;DHT22;18686;53.084;8.872;2023-09-18T15:22:35;24.90;77.50
32187;DHT22;18686;53.084;8.872;2023-09-18T15:25:03;25.00;77.40
32187;DHT22;18686;53.084;8.872;2023-09-18T15:27:33;25.00;75.20
32187;DHT22;18686;53.084;8.872;2023-09-18T15:30:01;24.90;74.60
32187;DHT22;18686;53.084;8.872;2023-09-18T15:32:45;24.90;74.20
32187;DHT22;18686;53.084;8.872;2023-09-18T15:35:15;24.90;74.60
32187;DHT22;18686;53.084;8.872;2023-09-18T15:37:43;24.80;74.80
32187;DHT22;18686;53.084;8.872;2023-09-18T15:40:12;24.80;74.90
32187;DHT22;18686;53.084;8.872;2023-09-18T15:42:44;24.80;74.70
32187;DHT22;18686;53.084;8.872;2023-09-18T15:45:12;24.70;75.00
32187;DHT22;18686;53.084;8.872;2023-09-18T15:47:41;24.60;76.20